Time;durP1;ratioP1;P1;durP2;ratioP2;P2;SDS_P1;SDS_P2;PMS_P1;PMS_P2;Temp;Humidity;BMP_temperature;BMP_pressure;BME280_temperature;BME280_humidity;BME280_pressure;Samples;Min_cycle;Max_cycle;Signal;HPM_P1;HPM_P2
2023/04/30 00:00:08;;;;;;;29.83;12.60;;;;;;;;;;5030365;28;20021;-68
2023/04/30 00:02:33;;;;;;;33.80;12.40;;;;;;;;;;5031634;28;20026;-69
2023/04/30 00:04:59;;;;;;;31.93;13.13;;;;;;;;;;4987520;28;1249075;-69
2023/04/30 00:07:24;;;;;;;31.50;13.93;;;;;;;;;;5030480;28;20124;-69
2023/04/30 00:09:50;;;;;;;27.77;12.63;;;;;;;;;;5032957;28;20036;-69
2023/04/30 00:12:15;;;;;;;32.93;12.67;;;;;;;;;;5033404;28;20036;-69
2023/04/30 00:14:40;;;;;;;31.80;12.37;;;;;;;;;;5032621;28;20018;-69
2023/04/30 00:17:06;;;;;;;39.73;13.20;;;;;;;;;;5031035;28;20436;-69
2023/04/30 00:19:31;;;;;;;29.83;12.67;;;;;;;;;;5033735;28;20096;-69
2023/04/30 00:21:56;;;;;;;27.40;12.53;;;;;;;;;;5031300;28;20156;-68
2023/04/30 00:24:22;;;;;;;36.50;13.63;;;;;;;;;;5029493;28;20022;-68
2023/04/30 00:26:47;;;;;;;36.27;13.57;;;;;;;;;;5031193;28;20051;-69
2023/04/30 00:29:12;;;;;;;32.57;12.50;;;;;;;;;;5033534;28;20029;-69
2023/04/30 00:31:38;;;;;;;31.40;12.97;;;;;;;;;;5031050;28;20017;-68
2023/04/30 00:34:03;;;;;;;30.27;13.80;;;;;;;;;;5032022;28;20524;-69
2023/04/30 00:36:29;;;;;;;37.73;14.07;;;;;;;;;;5032883;28;20052;-69
2023/04/30 00:38:54;;;;;;;41.63;14.40;;;;;;;;;;5031269;28;20025;-70
2023/04/30 00:41:20;;;;;;;37.23;13.50;;;;;;;;;;5032246;28;20051;-69
2023/04/30 00:43:46;;;;;;;40.13;14.67;;;;;;;;;;5031924;28;20036;-68
2023/04/30 00:46:11;;;;;;;37.77;14.17;;;;;;;;;;5031667;28;20096;-69
2023/04/30 00:48:36;;;;;;;40.47;14.07;;;;;;;;;;5032413;28;20100;-68
2023/04/30 00:51:02;;;;;;;42.67;14.43;;;;;;;;;;5031763;28;20096;-68
2023/04/30 00:53:28;;;;;;;42.97;14.60;;;;;;;;;;5031717;28;20397;-68
2023/04/30 00:55:54;;;;;;;39.60;14.03;;;;;;;;;;5031945;28;20072;-64
2023/04/30 00:58:20;;;;;;;43.27;14.20;;;;;;;;;;5032486;28;20045;-64
2023/04/30 01:03:48;;;;;;;36.13;14.27;;;;;;;;;;5043849;22;20059;-70
2023/04/30 01:06:13;;;;;;;38.87;14.33;;;;;;;;;;5020527;28;20025;-69
2023/04/30 01:08:39;;;;;;;37.13;14.40;;;;;;;;;;5031016;28;20025;-70
2023/04/30 01:11:23;;;;;;;32.77;13.20;;;;;;;;;;5031790;28;20018;-70
2023/04/30 01:13:54;;;;;;;44.50;15.63;;;;;;;;;;5034762;28;20117;-69
2023/04/30 01:16:25;;;;;;;45.60;15.02;;;;;;;;;;5031620;28;20037;-70
2023/04/30 01:18:53;;;;;;;42.53;14.43;;;;;;;;;;5034813;28;20505;-70
2023/04/30 01:21:19;;;;;;;46.93;15.50;;;;;;;;;;5035319;28;20369;-69
2023/04/30 01:24:11;;;;;;;41.50;16.03;;;;;;;;;;5035178;28;20030;-69
2023/04/30 01:26:54;;;;;;;40.42;15.20;;;;;;;;;;4949047;29;20074;-69
2023/04/30 01:29:21;;;;;;;39.97;15.03;;;;;;;;;;4941155;29;20156;-69
2023/04/30 01:31:46;;;;;;;38.53;14.83;;;;;;;;;;4935593;29;20102;-70
2023/04/30 01:34:11;;;;;;;44.33;16.27;;;;;;;;;;4935749;29;20032;-69
2023/04/30 01:37:00;;;;;;;46.97;16.53;;;;;;;;;;4935265;29;20039;-69
2023/04/30 01:39:42;;;;;;;41.93;15.70;;;;;;;;;;4936310;29;20024;-69
2023/04/30 01:42:07;;;;;;;;;;;;;;;;;;4934723;29;20020;-69
2023/04/30 01:44:47;;;;;;;47.33;16.13;;;;;;;;;;4935927;29;20424;-69
2023/04/30 01:47:23;;;;;;;56.37;15.17;;;;;;;;;;4934061;29;20019;-69
2023/04/30 01:50:24;;;;;;;48.50;16.67;;;;;;;;;;4935770;29;20035;-69
2023/04/30 01:52:51;;;;;;;39.47;15.10;;;;;;;;;;4858261;29;20030;-69
2023/04/30 01:55:25;;;;;;;40.67;15.57;;;;;;;;;;4861048;29;20062;-69
2023/04/30 01:58:00;;;;;;;47.30;16.53;;;;;;;;;;4860480;29;20216;-70
2023/04/30 02:00:26;;;;;;;46.70;16.87;;;;;;;;;;4859884;29;20066;-69
2023/04/30 02:02:51;;;;;;;54.10;16.90;;;;;;;;;;4897271;28;20034;-69
2023/04/30 02:05:16;;;;;;;45.43;16.83;;;;;;;;;;4972208;28;20059;-69
2023/04/30 02:07:43;;;;;;;44.47;16.10;;;;;;;;;;4965542;28;20043;-70
2023/04/30 02:10:10;;;;;;;48.17;16.93;;;;;;;;;;4957359;28;20019;-69
2023/04/30 02:12:36;;;;;;;42.17;15.93;;;;;;;;;;4965408;28;20034;-70
2023/04/30 02:15:01;;;;;;;36.93;15.33;;;;;;;;;;4956477;28;20139;-70
2023/04/30 02:17:27;;;;;;;44.30;15.20;;;;;;;;;;4971841;28;20501;-70
2023/04/30 02:19:52;;;;;;;41.43;15.17;;;;;;;;;;4968610;28;20134;-69
2023/04/30 02:22:17;;;;;;;42.93;15.67;;;;;;;;;;4955671;28;20500;-70
2023/04/30 02:24:42;;;;;;;39.43;15.80;;;;;;;;;;4964518;28;20022;-70
2023/04/30 02:27:08;;;;;;;41.27;15.23;;;;;;;;;;5008388;28;20061;-70
2023/04/30 02:29:33;;;;;;;43.27;15.10;;;;;;;;;;5034376;28;20430;-70
2023/04/30 02:31:58;;;;;;;36.20;15.40;;;;;;;;;;5033961;28;20034;-70
2023/04/30 02:34:24;;;;;;;50.73;16.60;;;;;;;;;;5033794;28;20436;-70
2023/04/30 02:36:50;;;;;;;41.43;16.63;;;;;;;;;;5034786;28;20465;-71
2023/04/30 02:39:15;;;;;;;44.23;16.47;;;;;;;;;;5031750;28;20131;-70
2023/04/30 02:41:40;;;;;;;46.97;17.57;;;;;;;;;;5034878;28;20022;-70
2023/04/30 02:44:06;;;;;;;53.53;16.97;;;;;;;;;;5033716;28;20082;-70
2023/04/30 02:46:31;;;;;;;50.60;18.63;;;;;;;;;;5032928;28;20366;-71
2023/04/30 02:48:56;;;;;;;51.50;18.33;;;;;;;;;;5032799;28;20469;-71
2023/04/30 02:51:22;;;;;;;67.47;19.10;;;;;;;;;;5033543;28;20021;-71
2023/04/30 02:53:47;;;;;;;48.93;17.10;;;;;;;;;;5034263;28;20030;-67
2023/04/30 02:56:12;;;;;;;56.03;18.67;;;;;;;;;;5033773;28;20017;-67
2023/04/30 02:58:38;;;;;;;56.77;18.77;;;;;;;;;;5030982;28;20075;-66
2023/04/30 03:01:03;;;;;;;59.63;19.47;;;;;;;;;;5027676;28;20026;-67
2023/04/30 03:03:28;;;;;;;55.13;19.53;;;;;;;;;;5033034;28;20073;-66
2023/04/30 03:05:55;;;;;;;59.77;20.50;;;;;;;;;;5033455;28;20021;-66
2023/04/30 03:08:20;;;;;;;56.73;19.50;;;;;;;;;;5031458;28;20021;-66
2023/04/30 03:10:46;;;;;;;58.37;20.00;;;;;;;;;;5032295;28;20546;-66
2023/04/30 03:13:11;;;;;;;57.80;20.97;;;;;;;;;;5033627;28;20018;-66
2023/04/30 03:15:36;;;;;;;62.33;20.97;;;;;;;;;;5030083;28;20020;-67
2023/04/30 03:18:02;;;;;;;58.70;20.60;;;;;;;;;;5033919;28;20021;-67
2023/04/30 03:20:28;;;;;;;57.20;21.40;;;;;;;;;;5033962;28;20025;-67
2023/04/30 03:22:53;;;;;;;63.70;22.50;;;;;;;;;;5032887;28;20022;-67
2023/04/30 03:25:19;;;;;;;60.93;21.83;;;;;;;;;;5034052;28;20036;-67
2023/04/30 03:27:44;;;;;;;65.53;21.67;;;;;;;;;;5032999;28;20025;-66
2023/04/30 03:30:10;;;;;;;65.63;22.87;;;;;;;;;;5032751;28;20491;-66
2023/04/30 03:32:35;;;;;;;70.50;23.17;;;;;;;;;;5030291;28;20095;-66
2023/04/30 03:35:00;;;;;;;66.47;24.03;;;;;;;;;;5031151;28;20531;-66
2023/04/30 03:37:26;;;;;;;64.73;24.17;;;;;;;;;;5034629;28;20060;-66
2023/04/30 03:39:51;;;;;;;69.23;24.07;;;;;;;;;;5031505;28;20452;-67
2023/04/30 03:42:16;;;;;;;67.43;24.40;;;;;;;;;;5033549;28;20052;-67
2023/04/30 03:44:41;;;;;;;66.23;23.47;;;;;;;;;;5029482;28;20026;-67
2023/04/30 03:47:07;;;;;;;69.60;23.87;;;;;;;;;;5032858;28;20100;-67
2023/04/30 03:49:32;;;;;;;71.80;25.07;;;;;;;;;;5014768;28;20419;-67
2023/04/30 03:51:57;;;;;;;67.37;24.60;;;;;;;;;;5032029;28;20488;-67
2023/04/30 03:54:23;;;;;;;67.57;24.10;;;;;;;;;;5031641;28;20037;-64
2023/04/30 03:56:48;;;;;;;67.53;22.77;;;;;;;;;;5033395;28;20486;-65
2023/04/30 03:59:14;;;;;;;69.40;25.40;;;;;;;;;;5033165;28;20022;-65
2023/04/30 04:01:39;;;;;;;61.67;24.03;;;;;;;;;;5029586;28;20104;-64
2023/04/30 04:04:05;;;;;;;60.67;21.73;;;;;;;;;;5037396;28;20140;-64
2023/04/30 04:06:30;;;;;;;65.40;21.83;;;;;;;;;;5044483;28;20461;-64
2023/04/30 04:08:56;;;;;;;54.33;20.47;;;;;;;;;;5038148;28;20497;-64
2023/04/30 04:11:21;;;;;;;48.47;18.97;;;;;;;;;;5033075;28;20531;-64
2023/04/30 04:13:46;;;;;;;53.83;19.93;;;;;;;;;;5040228;28;20033;-64
2023/04/30 04:16:12;;;;;;;52.30;19.83;;;;;;;;;;5041944;28;20017;-64
2023/04/30 04:18:37;;;;;;;47.47;19.40;;;;;;;;;;5041706;28;20022;-66
2023/04/30 04:21:03;;;;;;;63.50;23.00;;;;;;;;;;5041441;28;20025;-67
2023/04/30 04:23:28;;;;;;;57.47;22.40;;;;;;;;;;5045589;28;20021;-67
2023/04/30 04:25:53;;;;;;;62.00;22.13;;;;;;;;;;5043096;28;20021;-66
2023/04/30 04:28:19;;;;;;;76.10;25.23;;;;;;;;;;5046232;28;20454;-66
2023/04/30 04:30:44;;;;;;;66.33;23.83;;;;;;;;;;5036368;28;20097;-67
2023/04/30 04:33:10;;;;;;;63.77;24.17;;;;;;;;;;5048029;28;20092;-67
2023/04/30 04:35:36;;;;;;;77.47;26.23;;;;;;;;;;5033315;28;20078;-66
2023/04/30 04:38:01;;;;;;;76.10;26.23;;;;;;;;;;5038612;28;20045;-67
2023/04/30 04:40:27;;;;;;;66.87;24.90;;;;;;;;;;5036279;28;20036;-67
2023/04/30 04:42:52;;;;;;;57.47;24.77;;;;;;;;;;5051807;28;20051;-66
2023/04/30 04:45:19;;;;;;;58.73;25.40;;;;;;;;;;5030508;28;20021;-67
2023/04/30 04:47:44;;;;;;;45.60;20.93;;;;;;;;;;5034683;28;20538;-67
2023/04/30 04:50:10;;;;;;;41.93;21.17;;;;;;;;;;5031347;28;20064;-66
2023/04/30 04:52:35;;;;;;;35.03;17.43;;;;;;;;;;5039853;28;20098;-64
2023/04/30 04:55:00;;;;;;;32.57;15.77;;;;;;;;;;5035568;28;20129;-64
2023/04/30 04:57:26;;;;;;;27.03;13.87;;;;;;;;;;5035132;28;20055;-65
2023/04/30 04:59:51;;;;;;;21.90;10.63;;;;;;;;;;5034588;28;20033;-64
2023/04/30 05:02:17;;;;;;;16.43;9.50;;;;;;;;;;5027042;28;20472;-64
2023/04/30 05:04:42;;;;;;;14.40;7.83;;;;;;;;;;5030943;28;20064;-64
2023/04/30 05:07:07;;;;;;;17.67;7.43;;;;;;;;;;5031303;28;20033;-64
2023/04/30 05:09:32;;;;;;;16.50;6.40;;;;;;;;;;5023776;28;20034;-65
2023/04/30 05:11:58;;;;;;;13.50;5.80;;;;;;;;;;5026039;28;20033;-64
2023/04/30 05:14:23;;;;;;;11.20;5.03;;;;;;;;;;5031388;28;20029;-65
2023/04/30 05:16:48;;;;;;;10.07;5.20;;;;;;;;;;5032116;28;20034;-70
2023/04/30 05:19:14;;;;;;;14.73;5.80;;;;;;;;;;5033242;28;20497;-70
2023/04/30 05:21:39;;;;;;;10.60;4.83;;;;;;;;;;5031202;28;20030;-70
2023/04/30 05:24:05;;;;;;;13.17;4.53;;;;;;;;;;5027170;28;20022;-70
2023/04/30 05:26:30;;;;;;;18.90;6.20;;;;;;;;;;5031037;28;20647;-70
2023/04/30 05:28:55;;;;;;;11.83;4.00;;;;;;;;;;5031103;28;20473;-70
2023/04/30 05:31:21;;;;;;;9.50;4.20;;;;;;;;;;5024240;28;20107;-70
2023/04/30 05:33:46;;;;;;;10.30;3.47;;;;;;;;;;5026872;28;20393;-70
2023/04/30 05:36:12;;;;;;;9.00;3.63;;;;;;;;;;5032669;28;20104;-70
2023/04/30 05:38:37;;;;;;;9.40;3.50;;;;;;;;;;5030327;28;20032;-69
2023/04/30 05:41:03;;;;;;;15.13;3.90;;;;;;;;;;5031404;28;20104;-70
2023/04/30 05:43:28;;;;;;;13.77;4.40;;;;;;;;;;5031111;28;20036;-69
2023/04/30 05:45:53;;;;;;;12.23;4.20;;;;;;;;;;5030592;28;20021;-70
2023/04/30 05:48:19;;;;;;;7.68;4.00;;;;;;;;;;5030245;28;20354;-69
2023/04/30 05:50:44;;;;;;;10.55;3.58;;;;;;;;;;5032410;28;20428;-69
2023/04/30 05:53:09;;;;;;;10.45;3.75;;;;;;;;;;5025673;28;20052;-69
2023/04/30 05:55:35;;;;;;;8.73;3.42;;;;;;;;;;5029307;28;20212;-69
2023/04/30 05:58:00;;;;;;;13.50;4.00;;;;;;;;;;5033617;28;20493;-69
2023/04/30 06:00:25;;;;;;;9.18;3.70;;;;;;;;;;5034764;28;20024;-68
2023/04/30 06:02:51;;;;;;;9.37;3.40;;;;;;;;;;5032992;28;20027;-71
2023/04/30 06:05:17;;;;;;;11.10;4.17;;;;;;;;;;5035031;28;20489;-68
2023/04/30 06:07:42;;;;;;;9.23;3.60;;;;;;;;;;5034161;28;20062;-69
2023/04/30 06:10:08;;;;;;;13.77;3.67;;;;;;;;;;5036240;28;20040;-68
2023/04/30 06:12:36;;;;;;;11.37;3.57;;;;;;;;;;5034985;28;20512;-68
2023/04/30 06:15:02;;;;;;;12.97;3.80;;;;;;;;;;5033640;28;20017;-67
2023/04/30 06:17:27;;;;;;;11.80;4.07;;;;;;;;;;5033023;28;20503;-68
2023/04/30 06:19:52;;;;;;;9.20;3.40;;;;;;;;;;5034214;28;20033;-68
2023/04/30 06:22:18;;;;;;;15.37;3.53;;;;;;;;;;5024131;28;20018;-68
2023/04/30 06:24:44;;;;;;;10.65;3.33;;;;;;;;;;5031948;28;20357;-68
2023/04/30 06:27:09;;;;;;;9.93;3.20;;;;;;;;;;5035333;28;20017;-69
2023/04/30 06:29:35;;;;;;;9.63;3.00;;;;;;;;;;5036170;28;20029;-68
2023/04/30 06:32:00;;;;;;;11.63;3.30;;;;;;;;;;5033832;28;20095;-69
2023/04/30 06:34:25;;;;;;;9.82;2.97;;;;;;;;;;5032831;28;20098;-68
2023/04/30 06:36:51;;;;;;;9.15;3.05;;;;;;;;;;5034459;28;20021;-69
2023/04/30 06:39:16;;;;;;;9.02;2.90;;;;;;;;;;5033191;28;20052;-69
2023/04/30 06:41:41;;;;;;;8.00;2.47;;;;;;;;;;5034331;28;20025;-67
2023/04/30 06:44:09;;;;;;;12.43;3.08;;;;;;;;;;5034017;28;20469;-68
2023/04/30 06:46:35;;;;;;;8.10;2.53;;;;;;;;;;5031806;28;20043;-68
2023/04/30 06:49:00;;;;;;;11.73;2.95;;;;;;;;;;5034479;28;20492;-67
2023/04/30 06:51:25;;;;;;;9.85;3.22;;;;;;;;;;5035624;28;20095;-67
2023/04/30 06:53:51;;;;;;;8.55;3.22;;;;;;;;;;5032075;28;20095;-68
2023/04/30 06:56:16;;;;;;;10.00;3.10;;;;;;;;;;5033934;28;20105;-68
2023/04/30 06:58:42;;;;;;;9.20;3.25;;;;;;;;;;5035382;28;20068;-67
2023/04/30 07:01:07;;;;;;;8.88;2.95;;;;;;;;;;5022453;28;20030;-67
2023/04/30 07:03:33;;;;;;;8.68;2.55;;;;;;;;;;5027607;28;20042;-68
2023/04/30 07:05:58;;;;;;;10.13;3.15;;;;;;;;;;5019165;28;20084;-68
2023/04/30 07:08:26;;;;;;;9.23;3.05;;;;;;;;;;5015454;28;20097;-67
2023/04/30 07:10:51;;;;;;;7.40;2.28;;;;;;;;;;5021218;28;20025;-67
2023/04/30 07:13:17;;;;;;;4.13;1.98;;;;;;;;;;5012825;28;20026;-69
2023/04/30 07:15:42;;;;;;;8.85;2.53;;;;;;;;;;5012760;28;20080;-67
2023/04/30 07:18:08;;;;;;;11.07;3.17;;;;;;;;;;5014018;28;20018;-67
2023/04/30 07:20:34;;;;;;;10.77;3.10;;;;;;;;;;5013548;28;20478;-66
2023/04/30 07:22:59;;;;;;;11.85;3.63;;;;;;;;;;5014702;28;20028;-66
2023/04/30 07:25:25;;;;;;;11.10;3.22;;;;;;;;;;5013390;28;20529;-66
2023/04/30 07:27:50;;;;;;;8.57;2.67;;;;;;;;;;5012387;28;20013;-66
2023/04/30 07:30:16;;;;;;;10.40;2.75;;;;;;;;;;5020217;28;20387;-67
2023/04/30 07:32:41;;;;;;;16.25;3.63;;;;;;;;;;5013465;28;20493;-66
2023/04/30 07:35:07;;;;;;;7.63;2.80;;;;;;;;;;4994855;28;20018;-67
2023/04/30 07:37:32;;;;;;;8.68;2.92;;;;;;;;;;5010929;28;20058;-68
2023/04/30 07:39:57;;;;;;;6.95;3.00;;;;;;;;;;5012339;28;20018;-69
2023/04/30 07:42:23;;;;;;;11.40;3.50;;;;;;;;;;5014579;28;20144;-68
2023/04/30 07:44:48;;;;;;;6.85;3.00;;;;;;;;;;5011965;28;20064;-68
2023/04/30 07:47:13;;;;;;;11.75;3.33;;;;;;;;;;5011463;28;20466;-68
2023/04/30 07:49:39;;;;;;;8.85;3.47;;;;;;;;;;5013169;28;20685;-67
2023/04/30 07:52:05;;;;;;;7.93;3.20;;;;;;;;;;5011096;28;20057;-67
2023/04/30 07:54:30;;;;;;;9.32;3.08;;;;;;;;;;5012688;28;20067;-68
2023/04/30 07:56:55;;;;;;;6.00;2.90;;;;;;;;;;5012742;28;20382;-67
2023/04/30 07:59:23;;;;;;;10.68;3.30;;;;;;;;;;5012369;28;20505;-67
2023/04/30 08:01:48;;;;;;;8.80;3.42;;;;;;;;;;5010112;28;20026;-67
2023/04/30 08:04:14;;;;;;;8.77;2.78;;;;;;;;;;5022117;28;20049;-67
2023/04/30 08:06:39;;;;;;;11.35;3.42;;;;;;;;;;5032487;28;20100;-66
2023/04/30 08:09:04;;;;;;;8.82;2.88;;;;;;;;;;5032236;28;20029;-66
2023/04/30 08:11:29;;;;;;;12.02;2.80;;;;;;;;;;5031793;28;20029;-67
2023/04/30 08:13:55;;;;;;;11.73;3.20;;;;;;;;;;5032432;28;20420;-67
2023/04/30 08:16:23;;;;;;;10.35;3.03;;;;;;;;;;5030988;28;20025;-67
2023/04/30 08:18:49;;;;;;;8.75;2.85;;;;;;;;;;5029863;28;20025;-68
2023/04/30 08:21:14;;;;;;;6.40;2.40;;;;;;;;;;5031139;28;20386;-67
2023/04/30 08:23:40;;;;;;;8.57;2.85;;;;;;;;;;5028084;28;20029;-67
2023/04/30 08:26:05;;;;;;;10.25;3.00;;;;;;;;;;5031658;28;20191;-66
2023/04/30 08:28:31;;;;;;;9.38;3.05;;;;;;;;;;5025685;28;20028;-67
2023/04/30 08:30:56;;;;;;;9.98;3.47;;;;;;;;;;5030670;28;20036;-66
2023/04/30 08:33:21;;;;;;;10.40;2.75;;;;;;;;;;5033420;28;20024;-67
2023/04/30 08:35:47;;;;;;;9.98;2.58;;;;;;;;;;5030241;28;20025;-67
2023/04/30 08:38:12;;;;;;;7.72;2.83;;;;;;;;;;5030813;28;20100;-66
2023/04/30 08:43:07;;;;;;;8.07;2.90;;;;;;;;;;5032256;28;20100;-66
2023/04/30 08:45:33;;;;;;;8.32;3.10;;;;;;;;;;5030759;28;20025;-67
2023/04/30 08:47:59;;;;;;;8.68;2.97;;;;;;;;;;5029627;28;20354;-67
2023/04/30 08:50:24;;;;;;;15.52;3.63;;;;;;;;;;5031877;28;20025;-67
2023/04/30 08:52:49;;;;;;;7.30;2.53;;;;;;;;;;5030798;28;20458;-67
2023/04/30 08:55:15;;;;;;;9.40;2.80;;;;;;;;;;5028214;28;20025;-66
2023/04/30 08:57:40;;;;;;;9.57;2.80;;;;;;;;;;5029976;28;20018;-65
2023/04/30 09:00:06;;;;;;;10.23;3.03;;;;;;;;;;5030935;28;20127;-66
2023/04/30 09:02:32;;;;;;;10.05;2.53;;;;;;;;;;5028321;28;20018;-67
2023/04/30 09:04:58;;;;;;;7.78;2.72;;;;;;;;;;5027889;28;20049;-66
2023/04/30 09:07:24;;;;;;;13.40;3.08;;;;;;;;;;5029381;28;20037;-66
2023/04/30 09:09:51;;;;;;;9.70;2.90;;;;;;;;;;5025677;28;20482;-67
2023/04/30 09:12:18;;;;;;;8.32;3.15;;;;;;;;;;5029559;28;20440;-66
2023/04/30 09:15:05;;;;;;;9.52;2.50;;;;;;;;;;5032070;28;20083;-66
2023/04/30 09:17:30;;;;;;;10.70;3.28;;;;;;;;;;5028862;28;20426;-66
2023/04/30 09:20:12;;;;;;;9.95;2.92;;;;;;;;;;5028112;28;20052;-66
2023/04/30 09:22:38;;;;;;;8.98;2.70;;;;;;;;;;5032625;28;20025;-66
2023/04/30 09:25:04;;;;;;;10.15;2.55;;;;;;;;;;5030418;28;20029;-66
2023/04/30 09:27:29;;;;;;;8.90;2.90;;;;;;;;;;5031620;28;20107;-66
2023/04/30 09:29:55;;;;;;;10.77;3.05;;;;;;;;;;5031038;28;20039;-66
2023/04/30 09:32:20;;;;;;;10.00;3.00;;;;;;;;;;5029643;28;20025;-66
2023/04/30 09:34:45;;;;;;;7.55;2.80;;;;;;;;;;5034947;28;20029;-66
2023/04/30 09:37:11;;;;;;;7.97;2.50;;;;;;;;;;5032259;28;20096;-67
2023/04/30 09:39:47;;;;;;;9.02;2.92;;;;;;;;;;5032176;28;20079;-66
2023/04/30 09:42:12;;;;;;;7.28;2.80;;;;;;;;;;5034665;28;20473;-66
2023/04/30 09:44:38;;;;;;;7.88;2.97;;;;;;;;;;5033134;28;20099;-65
2023/04/30 09:47:03;;;;;;;9.27;2.60;;;;;;;;;;5034762;28;20025;-65
2023/04/30 09:49:29;;;;;;;15.40;11.27;;;;;;;;;;5031063;28;20112;-66
2023/04/30 09:51:58;;;;;;;5.63;2.33;;;;;;;;;;5030484;28;20026;-65
2023/04/30 09:54:28;;;;;;;10.13;2.45;;;;;;;;;;5036183;28;20029;-65
2023/04/30 09:56:54;;;;;;;5.55;1.98;;;;;;;;;;5036109;28;20486;-66
2023/04/30 09:59:20;;;;;;;7.05;2.00;;;;;;;;;;5035664;28;20551;-65
2023/04/30 10:01:46;;;;;;;7.95;2.22;;;;;;;;;;5034038;28;20028;-67
2023/04/30 10:04:12;;;;;;;10.20;2.35;;;;;;;;;;5035883;28;20408;-66
2023/04/30 10:06:38;;;;;;;7.63;2.53;;;;;;;;;;5034166;28;20018;-65
2023/04/30 10:09:04;;;;;;;7.70;2.50;;;;;;;;;;5035312;28;20025;-65
2023/04/30 10:11:31;;;;;;;9.02;2.88;;;;;;;;;;5034419;28;20017;-65
2023/04/30 10:14:01;;;;;;;9.38;2.22;;;;;;;;;;5036231;28;20104;-65
2023/04/30 10:16:43;;;;;;;7.00;2.15;;;;;;;;;;5035709;28;20021;-65
2023/04/30 10:19:13;;;;;;;7.97;2.58;;;;;;;;;;5036126;28;20445;-65
2023/04/30 10:21:39;;;;;;;5.93;2.10;;;;;;;;;;5034735;28;20516;-66
2023/04/30 10:24:05;;;;;;;6.95;2.22;;;;;;;;;;5031045;28;20113;-65
2023/04/30 10:26:31;;;;;;;8.80;2.28;;;;;;;;;;5032339;28;20049;-65
2023/04/30 10:28:57;;;;;;;6.85;2.40;;;;;;;;;;5032368;28;20388;-65
2023/04/30 10:31:23;;;;;;;7.60;2.72;;;;;;;;;;5025695;28;20080;-65
2023/04/30 10:34:11;;;;;;;7.35;2.10;;;;;;;;;;5015715;28;20477;-65
2023/04/30 10:36:47;;;;;;;7.35;2.40;;;;;;;;;;5007700;28;20030;-65
2023/04/30 10:39:14;;;;;;;6.53;2.20;;;;;;;;;;5023097;28;20024;-65
2023/04/30 10:41:39;;;;;;;6.72;1.95;;;;;;;;;;5032847;28;20516;-66
2023/04/30 10:44:06;;;;;;;7.20;2.20;;;;;;;;;;5028978;28;20041;-66
2023/04/30 10:46:33;;;;;;;6.72;2.17;;;;;;;;;;5030596;28;20126;-65
2023/04/30 10:48:59;;;;;;;10.38;2.35;;;;;;;;;;5028913;28;20035;-65
2023/04/30 10:51:43;;;;;;;8.73;2.35;;;;;;;;;;5030045;28;20112;-65
2023/04/30 10:54:08;;;;;;;8.35;2.50;;;;;;;;;;5027013;28;20135;-65
2023/04/30 10:56:34;;;;;;;9.07;2.10;;;;;;;;;;5032761;28;20026;-65
2023/04/30 10:59:02;;;;;;;9.23;2.40;;;;;;;;;;5034443;28;20022;-66
2023/04/30 11:01:28;;;;;;;6.55;2.10;;;;;;;;;;5027496;28;20022;-65
2023/04/30 11:04:07;;;;;;;6.38;2.00;;;;;;;;;;5031065;28;20567;-65
2023/04/30 11:06:50;;;;;;;8.23;2.17;;;;;;;;;;5032450;28;20025;-66
2023/04/30 11:09:16;;;;;;;4.85;1.80;;;;;;;;;;5026836;28;20014;-66
2023/04/30 11:11:43;;;;;;;6.35;2.22;;;;;;;;;;5034718;28;20028;-67
2023/04/30 11:14:10;;;;;;;6.80;2.35;;;;;;;;;;5034839;28;20481;-67
2023/04/30 11:16:35;;;;;;;9.32;2.65;;;;;;;;;;5034906;28;20102;-67
2023/04/30 11:19:10;;;;;;;6.55;2.53;;;;;;;;;;5034594;28;20481;-67
2023/04/30 11:21:59;;;;;;;7.00;2.60;;;;;;;;;;5032654;28;20075;-67
2023/04/30 11:24:44;;;;;;;7.22;3.03;;;;;;;;;;5025826;28;20101;-67
2023/04/30 11:27:11;;;;;;;5.15;2.05;;;;;;;;;;5031182;28;20029;-67
2023/04/30 11:29:37;;;;;;;10.20;2.80;;;;;;;;;;5027151;28;20025;-68
2023/04/30 11:32:03;;;;;;;8.20;2.90;;;;;;;;;;5033511;28;20020;-68
2023/04/30 11:34:29;;;;;;;7.60;2.50;;;;;;;;;;5034556;28;20084;-69
2023/04/30 11:36:57;;;;;;;7.45;2.45;;;;;;;;;;5034074;28;20040;-70
2023/04/30 11:39:23;;;;;;;5.90;2.30;;;;;;;;;;5017545;28;20080;-69
2023/04/30 11:41:51;;;;;;;7.65;2.40;;;;;;;;;;5033245;28;20025;-68
2023/04/30 11:44:25;;;;;;;10.65;2.80;;;;;;;;;;5028138;28;20022;-67
2023/04/30 11:49:19;;;;;;;8.18;2.60;;;;;;;;;;5032882;28;20017;-68
2023/04/30 11:51:47;;;;;;;9.05;3.10;;;;;;;;;;5034320;28;20026;-67
2023/04/30 11:54:13;;;;;;;6.95;2.50;;;;;;;;;;5032111;28;20025;-67
2023/04/30 11:56:39;;;;;;;7.93;2.60;;;;;;;;;;5030977;28;20021;-67
2023/04/30 11:59:10;;;;;;;5.65;2.20;;;;;;;;;;5034221;28;20053;-67
2023/04/30 12:01:36;;;;;;;7.75;2.40;;;;;;;;;;5030342;28;20038;-67
2023/04/30 12:04:05;;;;;;;6.32;2.05;;;;;;;;;;5023060;28;20041;-68
2023/04/30 12:06:30;;;;;;;6.93;2.33;;;;;;;;;;5026307;28;20045;-68
2023/04/30 12:09:00;;;;;;;5.80;2.17;;;;;;;;;;5031413;28;20631;-68
2023/04/30 12:11:26;;;;;;;4.78;2.00;;;;;;;;;;5029948;28;20049;-69
2023/04/30 12:13:57;;;;;;;7.68;2.38;;;;;;;;;;5030588;28;20032;-68
2023/04/30 12:16:27;;;;;;;7.83;2.30;;;;;;;;;;5019935;28;20523;-68
2023/04/30 12:18:52;;;;;;;7.13;2.83;;;;;;;;;;5030379;28;20347;-68
2023/04/30 12:21:17;;;;;;;7.10;2.22;;;;;;;;;;5028857;28;20092;-68
2023/04/30 12:23:44;;;;;;;8.30;2.42;;;;;;;;;;5027282;28;20425;-69
2023/04/30 12:26:09;;;;;;;5.65;2.40;;;;;;;;;;5031438;28;20412;-68
2023/04/30 12:28:35;;;;;;;7.97;2.50;;;;;;;;;;5031199;28;20071;-68
2023/04/30 12:31:01;;;;;;;6.90;2.15;;;;;;;;;;5030986;28;20029;-68
2023/04/30 12:33:28;;;;;;;5.68;1.88;;;;;;;;;;5031771;28;20485;-68
2023/04/30 12:35:55;;;;;;;6.78;1.92;;;;;;;;;;5031288;28;20029;-67
2023/04/30 12:38:22;;;;;;;6.05;1.85;;;;;;;;;;5032201;28;20025;-67
2023/04/30 12:40:47;;;;;;;8.00;2.55;;;;;;;;;;5030302;28;20537;-68
2023/04/30 12:43:14;;;;;;;6.55;2.03;;;;;;;;;;5014022;28;20104;-69
2023/04/30 12:45:43;;;;;;;6.40;2.30;;;;;;;;;;5030917;28;20033;-68
2023/04/30 12:48:09;;;;;;;4.85;2.00;;;;;;;;;;5031375;28;20455;-67
2023/04/30 12:50:34;;;;;;;10.35;3.05;;;;;;;;;;5015540;28;20021;-68
2023/04/30 12:53:03;;;;;;;6.13;2.53;;;;;;;;;;5031013;28;20053;-67
2023/04/30 12:55:29;;;;;;;5.85;2.30;;;;;;;;;;5028609;28;20477;-68
2023/04/30 12:58:22;;;;;;;7.60;2.28;;;;;;;;;;5013880;28;20485;-68
2023/04/30 13:00:48;;;;;;;6.50;2.38;;;;;;;;;;5024224;28;20103;-68
2023/04/30 13:03:15;;;;;;;5.88;2.10;;;;;;;;;;5029631;28;20743;-68
2023/04/30 13:05:41;;;;;;;6.03;2.35;;;;;;;;;;5031216;28;20032;-68
2023/04/30 13:08:06;;;;;;;6.32;2.22;;;;;;;;;;5032617;28;20030;-68
2023/04/30 13:10:32;;;;;;;8.55;2.45;;;;;;;;;;5034280;28;20382;-67
2023/04/30 13:12:58;;;;;;;5.15;2.10;;;;;;;;;;5035543;28;20049;-67
2023/04/30 13:15:23;;;;;;;6.45;2.40;;;;;;;;;;5035549;28;20037;-67
2023/04/30 13:17:49;;;;;;;4.20;2.10;;;;;;;;;;5034748;28;20025;-67
2023/04/30 13:20:17;;;;;;;6.88;2.47;;;;;;;;;;5033135;28;20018;-68
2023/04/30 13:22:43;;;;;;;7.55;2.53;;;;;;;;;;5035326;28;20109;-68
2023/04/30 13:25:08;;;;;;;7.05;2.20;;;;;;;;;;5035137;28;20053;-68
2023/04/30 13:27:34;;;;;;;8.90;2.65;;;;;;;;;;5033875;28;20022;-68
2023/04/30 13:30:00;;;;;;;5.65;2.13;;;;;;;;;;5035260;28;20096;-69
2023/04/30 13:32:25;;;;;;;6.05;2.08;;;;;;;;;;5034809;28;20029;-68
2023/04/30 13:34:53;;;;;;;5.90;2.30;;;;;;;;;;5034160;28;20024;-69
2023/04/30 13:37:19;;;;;;;7.18;2.50;;;;;;;;;;5033689;28;20071;-68
2023/04/30 13:39:45;;;;;;;9.07;3.50;;;;;;;;;;5033632;28;20013;-68
2023/04/30 13:42:10;;;;;;;6.72;2.30;;;;;;;;;;5031101;28;20470;-68
2023/04/30 13:44:35;;;;;;;8.88;2.65;;;;;;;;;;5030759;28;20029;-68
2023/04/30 13:47:01;;;;;;;6.57;2.40;;;;;;;;;;5032508;28;20029;-68
2023/04/30 13:49:26;;;;;;;6.57;3.03;;;;;;;;;;5034375;28;20037;-69
2023/04/30 13:51:51;;;;;;;6.15;2.33;;;;;;;;;;5016099;28;20070;-68
2023/04/30 13:54:17;;;;;;;9.23;2.72;;;;;;;;;;5033635;28;20056;-68
2023/04/30 13:56:42;;;;;;;6.30;2.50;;;;;;;;;;5034946;28;20017;-69
2023/04/30 13:59:08;;;;;;;7.78;2.40;;;;;;;;;;5034553;28;20508;-68
2023/04/30 14:01:33;;;;;;;6.43;2.28;;;;;;;;;;5031595;28;20017;-68
2023/04/30 14:03:59;;;;;;;6.45;2.50;;;;;;;;;;5033315;28;20052;-69
2023/04/30 14:06:24;;;;;;;8.63;2.75;;;;;;;;;;5031699;28;20029;-70
2023/04/30 14:08:50;;;;;;;5.63;2.38;;;;;;;;;;5034511;28;20025;-70
2023/04/30 14:11:15;;;;;;;6.15;2.30;;;;;;;;;;5032395;28;20036;-66
2023/04/30 14:13:40;;;;;;;6.25;2.65;;;;;;;;;;5033617;28;20057;-67
2023/04/30 14:16:06;;;;;;;7.72;2.58;;;;;;;;;;5028238;28;20060;-68
2023/04/30 14:18:31;;;;;;;8.88;2.47;;;;;;;;;;5023074;28;20080;-68
2023/04/30 14:20:56;;;;;;;5.55;2.25;;;;;;;;;;5032949;28;20058;-71
2023/04/30 14:23:22;;;;;;;6.75;2.83;;;;;;;;;;5021372;28;20397;-68
2023/04/30 14:25:47;;;;;;;6.97;2.83;;;;;;;;;;5033574;28;20020;-68
2023/04/30 14:28:12;;;;;;;6.35;2.40;;;;;;;;;;5033319;28;20013;-68
2023/04/30 14:30:38;;;;;;;6.70;2.45;;;;;;;;;;5017719;28;20022;-69
2023/04/30 14:33:03;;;;;;;6.22;2.00;;;;;;;;;;5036143;28;20017;-69
2023/04/30 14:35:28;;;;;;;5.90;1.92;;;;;;;;;;5034005;28;20477;-69